sensor_id;sensor_type;location;lat;lon;timestamp;pressure;altitude;pressure_sealevel;temperature;humidity
79415;BME280;68864;44.972;19.612;2024-02-16T00:01:24;101538.84;;;5.68;67.04
79415;BME280;68864;44.972;19.612;2024-02-16T00:03:51;101547.03;;;5.73;67.16
79415;BME280;68864;44.972;19.612;2024-02-16T00:06:18;101549.91;;;5.68;67.53
79415;BME280;68864;44.972;19.612;2024-02-16T00:08:46;101541.91;;;5.66;68.01
79415;BME280;68864;44.972;19.612;2024-02-16T00:11:13;101541.50;;;5.59;67.48
79415;BME280;68864;44.972;19.612;2024-02-16T00:13:40;101533.31;;;5.54;68.46
79415;BME280;68864;44.972;19.612;2024-02-16T00:16:07;101534.25;;;5.49;68.19
79415;BME280;68864;44.972;19.612;2024-02-16T00:18:34;101533.59;;;5.39;69.42
79415;BME280;68864;44.972;19.612;2024-02-16T00:21:02;101529.41;;;5.41;68.45
79415;BME280;68864;44.972;19.612;2024-02-16T00:23:29;101534.53;;;5.34;69.66
79415;BME280;68864;44.972;19.612;2024-02-16T00:25:57;101524.81;;;5.37;68.78
79415;BME280;68864;44.972;19.612;2024-02-16T00:28:24;101534.75;;;5.38;68.92
79415;BME280;68864;44.972;19.612;2024-02-16T00:30:51;101527.59;;;5.37;69.71
79415;BME280;68864;44.972;19.612;2024-02-16T00:33:19;101527.06;;;5.35;69.37
79415;BME280;68864;44.972;19.612;2024-02-16T00:35:46;101523.69;;;5.38;68.74
79415;BME280;68864;44.972;19.612;2024-02-16T00:38:15;101528.41;;;5.37;68.89
79415;BME280;68864;44.972;19.612;2024-02-16T00:40:41;101533.09;;;5.37;69.35
79415;BME280;68864;44.972;19.612;2024-02-16T00:43:11;101519.88;;;5.34;69.16
79415;BME280;68864;44.972;19.612;2024-02-16T00:45:38;101523.19;;;5.36;69.32
79415;BME280;68864;44.972;19.612;2024-02-16T00:48:07;101526.53;;;5.33;69.63
79415;BME280;68864;44.972;19.612;2024-02-16T00:50:34;101523.78;;;5.33;69.32
79415;BME280;68864;44.972;19.612;2024-02-16T00:53:00;101521.34;;;5.31;69.58
79415;BME280;68864;44.972;19.612;2024-02-16T00:55:28;101531.34;;;5.27;68.95
79415;BME280;68864;44.972;19.612;2024-02-16T00:57:55;101519.66;;;5.16;70.72
79415;BME280;68864;44.972;19.612;2024-02-16T01:00:23;101519.78;;;5.25;69.24
79415;BME280;68864;44.972;19.612;2024-02-16T01:02:51;101512.09;;;5.22;69.05
79415;BME280;68864;44.972;19.612;2024-02-16T01:05:19;101518.16;;;5.24;68.88
79415;BME280;68864;44.972;19.612;2024-02-16T01:07:46;101517.91;;;5.20;69.49
79415;BME280;68864;44.972;19.612;2024-02-16T01:10:13;101513.84;;;5.18;69.51
79415;BME280;68864;44.972;19.612;2024-02-16T01:12:40;101503.09;;;5.16;68.93
79415;BME280;68864;44.972;19.612;2024-02-16T01:15:07;101498.44;;;5.12;69.91
79415;BME280;68864;44.972;19.612;2024-02-16T01:17:36;101492.53;;;5.05;70.29
79415;BME280;68864;44.972;19.612;2024-02-16T01:20:06;101503.47;;;5.10;69.71
79415;BME280;68864;44.972;19.612;2024-02-16T01:22:35;101501.41;;;5.02;70.75
79415;BME280;68864;44.972;19.612;2024-02-16T01:25:03;101503.34;;;5.01;70.09
79415;BME280;68864;44.972;19.612;2024-02-16T01:27:30;101496.09;;;4.92;70.49
79415;BME280;68864;44.972;19.612;2024-02-16T01:29:57;101498.53;;;4.93;70.26
79415;BME280;68864;44.972;19.612;2024-02-16T01:32:24;101487.97;;;4.82;71.85
79415;BME280;68864;44.972;19.612;2024-02-16T01:34:53;101491.69;;;4.91;71.48
79415;BME280;68864;44.972;19.612;2024-02-16T01:37:20;101489.50;;;4.88;70.77
79415;BME280;68864;44.972;19.612;2024-02-16T01:39:47;101484.38;;;4.81;71.94
79415;BME280;68864;44.972;19.612;2024-02-16T01:42:14;101491.25;;;4.84;70.80
79415;BME280;68864;44.972;19.612;2024-02-16T01:44:40;101487.13;;;4.81;71.16
79415;BME280;68864;44.972;19.612;2024-02-16T01:47:08;101496.34;;;4.76;71.41
79415;BME280;68864;44.972;19.612;2024-02-16T01:49:35;101482.31;;;4.73;72.01
79415;BME280;68864;44.972;19.612;2024-02-16T01:52:04;101484.56;;;4.71;72.16
79415;BME280;68864;44.972;19.612;2024-02-16T01:54:31;101480.34;;;4.73;71.57
79415;BME280;68864;44.972;19.612;2024-02-16T01:56:58;101482.63;;;4.71;72.19
79415;BME280;68864;44.972;19.612;2024-02-16T01:59:26;101477.09;;;4.71;71.13
79415;BME280;68864;44.972;19.612;2024-02-16T02:01:54;101476.47;;;4.74;71.50
79415;BME280;68864;44.972;19.612;2024-02-16T02:04:21;101472.41;;;4.72;71.10
79415;BME280;68864;44.972;19.612;2024-02-16T02:06:48;101471.06;;;4.69;71.20
79415;BME280;68864;44.972;19.612;2024-02-16T02:09:16;101465.53;;;4.69;70.81
79415;BME280;68864;44.972;19.612;2024-02-16T02:11:43;101471.63;;;4.66;71.59
79415;BME280;68864;44.972;19.612;2024-02-16T02:14:10;101472.03;;;4.60;71.07
79415;BME280;68864;44.972;19.612;2024-02-16T02:16:38;101462.94;;;4.59;72.12
79415;BME280;68864;44.972;19.612;2024-02-16T02:19:04;101465.78;;;4.54;71.29
79415;BME280;68864;44.972;19.612;2024-02-16T02:21:31;101468.34;;;4.51;71.82
79415;BME280;68864;44.972;19.612;2024-02-16T02:24:00;101465.34;;;4.47;72.78
79415;BME280;68864;44.972;19.612;2024-02-16T02:26:26;101458.78;;;4.43;72.30
79415;BME280;68864;44.972;19.612;2024-02-16T02:28:54;101456.31;;;4.42;72.67
79415;BME280;68864;44.972;19.612;2024-02-16T02:31:20;101451.63;;;4.42;72.14
79415;BME280;68864;44.972;19.612;2024-02-16T02:33:47;101456.31;;;4.42;72.12
79415;BME280;68864;44.972;19.612;2024-02-16T02:36:14;101458.34;;;4.36;72.30
79415;BME280;68864;44.972;19.612;2024-02-16T02:38:41;101456.72;;;4.35;72.12
79415;BME280;68864;44.972;19.612;2024-02-16T02:41:11;101460.81;;;4.37;72.24
79415;BME280;68864;44.972;19.612;2024-02-16T02:43:38;101458.34;;;4.36;72.31
79415;BME280;68864;44.972;19.612;2024-02-16T02:46:05;101468.28;;;4.37;72.11
79415;BME280;68864;44.972;19.612;2024-02-16T02:48:32;101458.34;;;4.36;72.67
79415;BME280;68864;44.972;19.612;2024-02-16T02:50:58;101462.75;;;4.37;72.99
79415;BME280;68864;44.972;19.612;2024-02-16T02:53:28;101461.41;;;4.34;73.42
79415;BME280;68864;44.972;19.612;2024-02-16T02:55:55;101458.94;;;4.33;73.17
79415;BME280;68864;44.972;19.612;2024-02-16T02:58:23;101465.81;;;4.35;73.29
79415;BME280;68864;44.972;19.612;2024-02-16T03:00:50;101465.66;;;4.27;73.66
79415;BME280;68864;44.972;19.612;2024-02-16T03:03:17;101461.34;;;4.21;73.92
79415;BME280;68864;44.972;19.612;2024-02-16T03:05:44;101463.28;;;4.20;73.05
79415;BME280;68864;44.972;19.612;2024-02-16T03:08:11;101466.84;;;4.21;73.31
79415;BME280;68864;44.972;19.612;2024-02-16T03:10:38;101459.94;;;4.23;72.60
79415;BME280;68864;44.972;19.612;2024-02-16T03:13:08;101469.31;;;4.22;74.39
79415;BME280;68864;44.972;19.612;2024-02-16T03:15:36;101465.66;;;4.27;73.32
79415;BME280;68864;44.972;19.612;2024-02-16T03:18:04;101466.78;;;4.26;73.46
79415;BME280;68864;44.972;19.612;2024-02-16T03:20:34;101466.84;;;4.21;74.49
79415;BME280;68864;44.972;19.612;2024-02-16T03:23:01;101469.84;;;4.24;73.52
79415;BME280;68864;44.972;19.612;2024-02-16T03:25:28;101471.25;;;4.22;74.46
79415;BME280;68864;44.972;19.612;2024-02-16T03:27:55;101448.38;;;4.03;73.52
79415;BME280;68864;44.972;19.612;2024-02-16T03:30:22;101473.38;;;4.11;73.99
79415;BME280;68864;44.972;19.612;2024-02-16T03:32:50;101473.88;;;4.13;74.36
79415;BME280;68864;44.972;19.612;2024-02-16T03:35:17;101477.06;;;4.20;74.80
79415;BME280;68864;44.972;19.612;2024-02-16T03:37:43;101471.72;;;4.29;73.92
79415;BME280;68864;44.972;19.612;2024-02-16T03:40:11;101476.69;;;4.27;75.05
79415;BME280;68864;44.972;19.612;2024-02-16T03:42:38;101470.06;;;4.28;75.25
79415;BME280;68864;44.972;19.612;2024-02-16T03:45:07;101479.69;;;4.30;75.10
79415;BME280;68864;44.972;19.612;2024-02-16T03:47:34;101472.28;;;4.26;75.31
79415;BME280;68864;44.972;19.612;2024-02-16T03:50:02;101476.78;;;4.22;75.94
79415;BME280;68864;44.972;19.612;2024-02-16T03:52:29;101478.97;;;4.25;75.86
79415;BME280;68864;44.972;19.612;2024-02-16T03:54:56;101474.56;;;4.24;75.28
79415;BME280;68864;44.972;19.612;2024-02-16T03:57:23;101478.34;;;4.28;75.68
79415;BME280;68864;44.972;19.612;2024-02-16T03:59:50;101475.75;;;4.18;77.34
79415;BME280;68864;44.972;19.612;2024-02-16T04:02:16;101480.91;;;4.24;76.53
79415;BME280;68864;44.972;19.612;2024-02-16T04:04:44;101472.00;;;4.27;76.33
79415;BME280;68864;44.972;19.612;2024-02-16T04:07:12;101477.75;;;4.31;75.96
79415;BME280;68864;44.972;19.612;2024-02-16T04:09:39;101480.72;;;4.34;75.41
79415;BME280;68864;44.972;19.612;2024-02-16T04:12:07;101477.75;;;4.31;75.60
79415;BME280;68864;44.972;19.612;2024-02-16T04:14:34;101481.63;;;4.30;76.07
79415;BME280;68864;44.972;19.612;2024-02-16T04:17:01;101480.91;;;4.24;76.53
79415;BME280;68864;44.972;19.612;2024-02-16T04:19:29;101483.22;;;4.17;76.09
79415;BME280;68864;44.972;19.612;2024-02-16T04:21:55;101486.25;;;4.16;75.56
79415;BME280;68864;44.972;19.612;2024-02-16T04:24:24;101486.78;;;4.18;75.15
79415;BME280;68864;44.972;19.612;2024-02-16T04:26:52;101477.75;;;4.12;74.53
79415;BME280;68864;44.972;19.612;2024-02-16T04:29:18;101481.94;;;4.10;75.44
79415;BME280;68864;44.972;19.612;2024-02-16T04:31:45;101487.22;;;4.06;74.97
79415;BME280;68864;44.972;19.612;2024-02-16T04:34:13;101485.72;;;3.95;75.66
79415;BME280;68864;44.972;19.612;2024-02-16T04:36:40;101476.16;;;3.87;75.75
79415;BME280;68864;44.972;19.612;2024-02-16T04:39:07;101487.19;;;3.87;75.14
79415;BME280;68864;44.972;19.612;2024-02-16T04:41:36;101458.50;;;3.70;75.80
79415;BME280;68864;44.972;19.612;2024-02-16T04:44:03;101478.63;;;3.89;76.29
79415;BME280;68864;44.972;19.612;2024-02-16T04:46:30;101480.34;;;3.85;76.75
79415;BME280;68864;44.972;19.612;2024-02-16T04:48:57;101475.66;;;3.85;76.20
79415;BME280;68864;44.972;19.612;2024-02-16T04:51:24;101478.53;;;3.75;76.52
79415;BME280;68864;44.972;19.612;2024-02-16T04:53:51;101477.72;;;3.75;77.05
79415;BME280;68864;44.972;19.612;2024-02-16T04:56:18;101484.59;;;3.77;77.57
79415;BME280;68864;44.972;19.612;2024-02-16T04:58:47;101483.41;;;3.83;77.86
79415;BME280;68864;44.972;19.612;2024-02-16T05:01:14;101470.72;;;3.82;77.39
79415;BME280;68864;44.972;19.612;2024-02-16T05:03:41;101469.09;;;3.81;76.88
79415;BME280;68864;44.972;19.612;2024-02-16T05:06:08;101475.13;;;3.83;77.41
79415;BME280;68864;44.972;19.612;2024-02-16T05:08:35;101468.50;;;3.84;77.58
79415;BME280;68864;44.972;19.612;2024-02-16T05:11:01;101474.53;;;3.86;77.35
79415;BME280;68864;44.972;19.612;2024-02-16T05:13:28;101475.06;;;3.88;77.10
79415;BME280;68864;44.972;19.612;2024-02-16T05:15:57;101471.75;;;3.86;78.12
79415;BME280;68864;44.972;19.612;2024-02-16T05:18:24;101474.97;;;3.93;77.23
79415;BME280;68864;44.972;19.612;2024-02-16T05:20:51;101471.63;;;3.96;77.70
79415;BME280;68864;44.972;19.612;2024-02-16T05:23:17;101478.19;;;4.00;77.15
79415;BME280;68864;44.972;19.612;2024-02-16T05:25:44;101469.16;;;3.95;77.67
79415;BME280;68864;44.972;19.612;2024-02-16T05:28:11;101479.38;;;3.94;77.24
79415;BME280;68864;44.972;19.612;2024-02-16T05:30:39;101477.75;;;3.93;77.77
79415;BME280;68864;44.972;19.612;2024-02-16T05:33:07;101477.69;;;3.98;78.23
79415;BME280;68864;44.972;19.612;2024-02-16T05:35:34;101485.44;;;3.96;78.08
79415;BME280;68864;44.972;19.612;2024-02-16T05:38:06;101480.50;;;3.93;78.36
79415;BME280;68864;44.972;19.612;2024-02-16T05:40:46;101489.22;;;4.00;78.28
79415;BME280;68864;44.972;19.612;2024-02-16T05:43:19;101494.44;;;4.02;77.71
79415;BME280;68864;44.972;19.612;2024-02-16T05:45:46;101490.28;;;4.05;77.87
79415;BME280;68864;44.972;19.612;2024-02-16T05:48:14;101499.81;;;4.12;77.37
79415;BME280;68864;44.972;19.612;2024-02-16T05:50:41;101506.38;;;4.16;77.59
79415;BME280;68864;44.972;19.612;2024-02-16T05:53:09;101493.34;;;4.22;77.04
79415;BME280;68864;44.972;19.612;2024-02-16T05:55:36;101507.81;;;4.51;76.68
79415;BME280;68864;44.972;19.612;2024-02-16T05:58:03;101509.19;;;4.67;75.32
79415;BME280;68864;44.972;19.612;2024-02-16T06:00:32;101520.13;;;4.91;74.73
79415;BME280;68864;44.972;19.612;2024-02-16T06:02:59;101509.50;;;5.12;74.03
79415;BME280;68864;44.972;19.612;2024-02-16T06:05:27;101514.38;;;5.47;74.41
79415;BME280;68864;44.972;19.612;2024-02-16T06:07:55;101521.66;;;5.71;73.49
79415;BME280;68864;44.972;19.612;2024-02-16T06:10:24;101512.59;;;6.56;70.18
79415;BME280;68864;44.972;19.612;2024-02-16T06:12:51;101511.47;;;8.37;63.57
79415;BME280;68864;44.972;19.612;2024-02-16T06:15:18;101514.00;;;10.25;56.89
79415;BME280;68864;44.972;19.612;2024-02-16T06:17:45;101516.50;;;11.70;52.14
79415;BME280;68864;44.972;19.612;2024-02-16T06:20:12;101514.91;;;12.58;49.25
79415;BME280;68864;44.972;19.612;2024-02-16T06:22:40;101503.97;;;13.99;45.07
79415;BME280;68864;44.972;19.612;2024-02-16T06:25:08;101509.56;;;15.07;42.74
79415;BME280;68864;44.972;19.612;2024-02-16T06:27:35;101495.75;;;16.13;40.56
79415;BME280;68864;44.972;19.612;2024-02-16T06:30:02;101506.63;;;17.04;39.32
79415;BME280;68864;44.972;19.612;2024-02-16T06:32:30;101503.09;;;17.92;37.35
79415;BME280;68864;44.972;19.612;2024-02-16T06:34:57;101513.41;;;18.93;35.26
79415;BME280;68864;44.972;19.612;2024-02-16T06:37:24;101504.69;;;20.12;32.35
79415;BME280;68864;44.972;19.612;2024-02-16T06:39:52;101500.06;;;20.82;30.64
79415;BME280;68864;44.972;19.612;2024-02-16T06:42:19;101502.78;;;21.72;29.50
79415;BME280;68864;44.972;19.612;2024-02-16T06:44:46;101490.19;;;22.59;28.25
79415;BME280;68864;44.972;19.612;2024-02-16T06:47:13;101493.53;;;23.18;26.59
79415;BME280;68864;44.972;19.612;2024-02-16T06:49:40;101489.66;;;22.68;27.24
79415;BME280;68864;44.972;19.612;2024-02-16T06:52:07;101497.09;;;23.53;26.17
79415;BME280;68864;44.972;19.612;2024-02-16T06:54:35;101485.53;;;24.10;25.64
79415;BME280;68864;44.972;19.612;2024-02-16T06:57:03;101490.63;;;24.65;24.18
79415;BME280;68864;44.972;19.612;2024-02-16T06:59:31;101484.47;;;24.67;23.89
79415;BME280;68864;44.972;19.612;2024-02-16T07:01:57;101477.69;;;24.17;24.00
79415;BME280;68864;44.972;19.612;2024-02-16T07:04:24;101477.50;;;24.05;25.37
79415;BME280;68864;44.972;19.612;2024-02-16T07:06:51;101470.59;;;25.77;22.61
79415;BME280;68864;44.972;19.612;2024-02-16T07:09:18;101475.00;;;26.26;22.53
79415;BME280;68864;44.972;19.612;2024-02-16T07:11:47;101463.00;;;26.60;21.57
79415;BME280;68864;44.972;19.612;2024-02-16T07:14:17;101458.78;;;25.91;22.44
79415;BME280;68864;44.972;19.612;2024-02-16T07:16:44;101460.22;;;25.83;22.11
79415;BME280;68864;44.972;19.612;2024-02-16T07:19:10;101446.78;;;28.43;19.43
79415;BME280;68864;44.972;19.612;2024-02-16T07:21:38;101444.25;;;29.60;18.51
79415;BME280;68864;44.972;19.612;2024-02-16T07:24:05;101437.91;;;29.65;17.57
79415;BME280;68864;44.972;19.612;2024-02-16T07:26:34;101435.56;;;30.46;17.52
79415;BME280;68864;44.972;19.612;2024-02-16T07:29:01;101436.03;;;29.89;18.06
79415;BME280;68864;44.972;19.612;2024-02-16T07:31:32;101423.94;;;31.84;15.21
79415;BME280;68864;44.972;19.612;2024-02-16T07:34:00;101422.88;;;32.20;15.13
79415;BME280;68864;44.972;19.612;2024-02-16T07:36:27;101431.59;;;32.50;15.67
79415;BME280;68864;44.972;19.612;2024-02-16T07:38:54;101428.44;;;32.77;14.33
79415;BME280;68864;44.972;19.612;2024-02-16T07:41:20;101428.50;;;29.65;16.96
79415;BME280;68864;44.972;19.612;2024-02-16T07:43:47;101430.25;;;32.21;15.75
79415;BME280;68864;44.972;19.612;2024-02-16T07:46:14;101435.66;;;29.60;16.88
79415;BME280;68864;44.972;19.612;2024-02-16T07:48:42;101438.16;;;30.62;16.04
79415;BME280;68864;44.972;19.612;2024-02-16T07:51:09;101457.13;;;30.87;15.99
79415;BME280;68864;44.972;19.612;2024-02-16T07:53:36;101457.69;;;30.58;16.47
79415;BME280;68864;44.972;19.612;2024-02-16T07:56:06;101459.50;;;29.88;17.01
79415;BME280;68864;44.972;19.612;2024-02-16T07:58:33;101458.31;;;30.44;16.53
79415;BME280;68864;44.972;19.612;2024-02-16T08:01:00;101465.25;;;33.11;14.36
79415;BME280;68864;44.972;19.612;2024-02-16T08:03:28;101471.66;;;33.65;14.43
79415;BME280;68864;44.972;19.612;2024-02-16T08:05:56;101473.53;;;31.23;15.48
79415;BME280;68864;44.972;19.612;2024-02-16T08:08:23;101479.44;;;32.80;14.99
79415;BME280;68864;44.972;19.612;2024-02-16T08:10:51;101484.13;;;33.22;14.68
79415;BME280;68864;44.972;19.612;2024-02-16T08:13:18;101479.03;;;35.14;12.86
79415;BME280;68864;44.972;19.612;2024-02-16T08:15:46;101497.63;;;35.59;12.70
79415;BME280;68864;44.972;19.612;2024-02-16T08:18:13;101484.69;;;34.51;13.54
79415;BME280;68864;44.972;19.612;2024-02-16T08:20:40;101486.22;;;35.87;12.63
79415;BME280;68864;44.972;19.612;2024-02-16T08:23:08;101490.63;;;37.00;11.85
79415;BME280;68864;44.972;19.612;2024-02-16T08:25:35;101483.50;;;36.20;12.31
79415;BME280;68864;44.972;19.612;2024-02-16T08:28:02;101485.03;;;36.80;11.45
79415;BME280;68864;44.972;19.612;2024-02-16T08:30:28;101486.84;;;38.06;11.23
79415;BME280;68864;44.972;19.612;2024-02-16T08:32:55;101479.94;;;38.14;11.30
79415;BME280;68864;44.972;19.612;2024-02-16T08:35:23;101474.63;;;35.87;12.69
79415;BME280;68864;44.972;19.612;2024-02-16T08:37:50;101479.66;;;35.92;12.23
79415;BME280;68864;44.972;19.612;2024-02-16T08:40:19;101470.22;;;35.23;12.99
79415;BME280;68864;44.972;19.612;2024-02-16T08:42:46;101476.25;;;35.99;12.85
79415;BME280;68864;44.972;19.612;2024-02-16T08:45:12;101472.69;;;37.35;12.00
79415;BME280;68864;44.972;19.612;2024-02-16T08:47:42;101474.41;;;39.64;10.87
79415;BME280;68864;44.972;19.612;2024-02-16T08:50:09;101471.97;;;38.73;10.72
79415;BME280;68864;44.972;19.612;2024-02-16T08:52:36;101467.16;;;39.16;10.74
79415;BME280;68864;44.972;19.612;2024-02-16T08:55:04;101474.81;;;38.32;11.15
79415;BME280;68864;44.972;19.612;2024-02-16T08:57:32;101450.38;;;39.77;10.06
79415;BME280;68864;44.972;19.612;2024-02-16T08:59:59;101472.47;;;40.21;9.82
79415;BME280;68864;44.972;19.612;2024-02-16T09:02:26;101476.84;;;36.73;11.04
79415;BME280;68864;44.972;19.612;2024-02-16T09:04:53;101475.69;;;38.21;10.77
79415;BME280;68864;44.972;19.612;2024-02-16T09:07:20;101468.72;;;39.53;9.53
79415;BME280;68864;44.972;19.612;2024-02-16T09:09:48;101473.97;;;37.01;11.27
79415;BME280;68864;44.972;19.612;2024-02-16T09:12:15;101476.75;;;38.76;10.44
79415;BME280;68864;44.972;19.612;2024-02-16T09:14:43;101479.81;;;35.77;11.79
79415;BME280;68864;44.972;19.612;2024-02-16T09:17:10;101481.41;;;37.19;11.38
79415;BME280;68864;44.972;19.612;2024-02-16T09:19:38;101472.25;;;38.75;10.83
79415;BME280;68864;44.972;19.612;2024-02-16T09:22:05;101469.72;;;36.09;11.55
79415;BME280;68864;44.972;19.612;2024-02-16T09:24:32;101479.75;;;36.68;11.79
79415;BME280;68864;44.972;19.612;2024-02-16T09:27:00;101485.03;;;35.30;12.21
79415;BME280;68864;44.972;19.612;2024-02-16T09:29:29;101484.63;;;36.39;11.87
79415;BME280;68864;44.972;19.612;2024-02-16T09:31:58;101492.75;;;35.76;11.55
79415;BME280;68864;44.972;19.612;2024-02-16T09:34:24;101487.38;;;36.65;12.25
79415;BME280;68864;44.972;19.612;2024-02-16T09:36:51;101487.69;;;36.84;11.43
79415;BME280;68864;44.972;19.612;2024-02-16T09:39:18;101494.84;;;36.99;10.60
79415;BME280;68864;44.972;19.612;2024-02-16T09:41:50;101493.94;;;35.01;11.82
79415;BME280;68864;44.972;19.612;2024-02-16T09:44:17;101499.00;;;34.34;12.63
79415;BME280;68864;44.972;19.612;2024-02-16T09:46:46;101494.34;;;37.18;11.07
79415;BME280;68864;44.972;19.612;2024-02-16T09:49:15;101506.00;;;35.51;12.01
79415;BME280;68864;44.972;19.612;2024-02-16T09:51:42;101514.16;;;36.27;11.63
79415;BME280;68864;44.972;19.612;2024-02-16T09:54:09;101508.94;;;34.74;12.79
79415;BME280;68864;44.972;19.612;2024-02-16T09:56:37;101471.28;;;31.27;15.55
79415;BME280;68864;44.972;19.612;2024-02-16T09:59:08;101480.66;;;27.89;17.66
79415;BME280;68864;44.972;19.612;2024-02-16T10:01:35;101474.41;;;26.76;18.63
79415;BME280;68864;44.972;19.612;2024-02-16T10:04:05;101474.66;;;24.68;21.20
79415;BME280;68864;44.972;19.612;2024-02-16T10:06:48;101475.19;;;22.21;24.70
79415;BME280;68864;44.972;19.612;2024-02-16T10:09:24;101483.81;;;21.62;25.19
79415;BME280;68864;44.972;19.612;2024-02-16T10:11:51;101472.16;;;20.80;25.98
79415;BME280;68864;44.972;19.612;2024-02-16T10:14:18;101471.09;;;20.39;26.24
79415;BME280;68864;44.972;19.612;2024-02-16T10:16:46;101473.94;;;20.17;27.01
79415;BME280;68864;44.972;19.612;2024-02-16T10:19:13;101467.38;;;20.59;26.57
79415;BME280;68864;44.972;19.612;2024-02-16T10:21:42;101469.47;;;20.45;25.94
79415;BME280;68864;44.972;19.612;2024-02-16T10:24:11;101457.81;;;19.61;26.95
79415;BME280;68864;44.972;19.612;2024-02-16T10:26:40;101469.47;;;19.21;28.14
79415;BME280;68864;44.972;19.612;2024-02-16T10:29:09;101455.91;;;18.54;28.92
79415;BME280;68864;44.972;19.612;2024-02-16T10:31:36;101471.03;;;19.00;28.40
79415;BME280;68864;44.972;19.612;2024-02-16T10:34:04;101465.34;;;18.10;29.47
79415;BME280;68864;44.972;19.612;2024-02-16T10:36:32;101467.19;;;17.81;30.64
79415;BME280;68864;44.972;19.612;2024-02-16T10:39:02;101458.78;;;17.96;30.29
79415;BME280;68864;44.972;19.612;2024-02-16T10:41:33;101456.81;;;18.00;30.48
79415;BME280;68864;44.972;19.612;2024-02-16T10:44:01;101452.16;;;17.70;31.16
79415;BME280;68864;44.972;19.612;2024-02-16T10:46:29;101452.00;;;17.53;31.60
79415;BME280;68864;44.972;19.612;2024-02-16T10:48:56;101441.34;;;17.35;31.46
79415;BME280;68864;44.972;19.612;2024-02-16T10:51:25;101438.31;;;17.11;31.86
79415;BME280;68864;44.972;19.612;2024-02-16T10:53:56;101429.31;;;17.38;31.81
79415;BME280;68864;44.972;19.612;2024-02-16T10:56:32;101427.00;;;17.47;31.89
79415;BME280;68864;44.972;19.612;2024-02-16T10:59:03;101431.41;;;17.48;31.54
79415;BME280;68864;44.972;19.612;2024-02-16T11:01:37;101433.06;;;17.09;31.72
79415;BME280;68864;44.972;19.612;2024-02-16T11:04:05;101425.31;;;17.39;31.70
79415;BME280;68864;44.972;19.612;2024-02-16T11:06:45;101430.16;;;17.42;31.97
79415;BME280;68864;44.972;19.612;2024-02-16T11:09:25;101416.78;;;17.32;31.96
79415;BME280;68864;44.972;19.612;2024-02-16T11:11:54;101419.31;;;17.44;31.07
79415;BME280;68864;44.972;19.612;2024-02-16T11:14:22;101416.97;;;17.09;30.88
79415;BME280;68864;44.972;19.612;2024-02-16T11:16:54;101391.28;;;16.78;31.34
79415;BME280;68864;44.972;19.612;2024-02-16T11:19:22;101407.09;;;16.89;30.06
79415;BME280;68864;44.972;19.612;2024-02-16T11:21:56;101406.16;;;16.75;29.77
79415;BME280;68864;44.972;19.612;2024-02-16T11:24:31;101410.84;;;16.34;29.81
79415;BME280;68864;44.972;19.612;2024-02-16T11:27:01;101402.06;;;16.68;29.24
79415;BME280;68864;44.972;19.612;2024-02-16T11:29:31;101396.25;;;16.88;28.55
79415;BME280;68864;44.972;19.612;2024-02-16T11:31:58;101395.44;;;16.87;28.74
79415;BME280;68864;44.972;19.612;2024-02-16T11:34:25;101401.88;;;16.54;27.55
79415;BME280;68864;44.972;19.612;2024-02-16T11:36:53;101399.47;;;16.56;27.00
79415;BME280;68864;44.972;19.612;2024-02-16T11:39:20;101397.25;;;16.09;25.70
79415;BME280;68864;44.972;19.612;2024-02-16T11:41:48;101392.75;;;16.01;27.19
79415;BME280;68864;44.972;19.612;2024-02-16T11:44:16;101389.78;;;15.90;27.89
79415;BME280;68864;44.972;19.612;2024-02-16T11:46:43;101383.72;;;16.18;27.57
79415;BME280;68864;44.972;19.612;2024-02-16T11:49:10;101385.72;;;16.18;26.75
79415;BME280;68864;44.972;19.612;2024-02-16T11:51:37;101373.13;;;15.78;26.76
79415;BME280;68864;44.972;19.612;2024-02-16T11:54:05;101378.41;;;15.83;27.15
79415;BME280;68864;44.972;19.612;2024-02-16T11:56:32;101372.00;;;15.57;26.78
79415;BME280;68864;44.972;19.612;2024-02-16T11:58:59;101372.59;;;15.69;26.07
79415;BME280;68864;44.972;19.612;2024-02-16T12:01:28;101366.50;;;15.64;25.75
79415;BME280;68864;44.972;19.612;2024-02-16T12:03:55;101369.03;;;15.49;26.58
79415;BME280;68864;44.972;19.612;2024-02-16T12:06:22;101368.28;;;15.75;25.86
79415;BME280;68864;44.972;19.612;2024-02-16T12:08:49;101336.34;;;15.38;25.83
79415;BME280;68864;44.972;19.612;2024-02-16T12:11:17;101366.63;;;15.48;25.74
79415;BME280;68864;44.972;19.612;2024-02-16T12:13:44;101358.47;;;15.62;26.38
79415;BME280;68864;44.972;19.612;2024-02-16T12:16:11;101359.84;;;15.75;26.90
79415;BME280;68864;44.972;19.612;2024-02-16T12:18:40;101359.88;;;15.79;27.62
79415;BME280;68864;44.972;19.612;2024-02-16T12:21:07;101331.50;;;15.35;26.31
79415;BME280;68864;44.972;19.612;2024-02-16T12:23:35;101347.47;;;15.54;26.99
79415;BME280;68864;44.972;19.612;2024-02-16T12:26:03;101348.97;;;15.47;27.14
79415;BME280;68864;44.972;19.612;2024-02-16T12:28:31;101337.25;;;15.68;27.00
79415;BME280;68864;44.972;19.612;2024-02-16T12:30:58;101344.16;;;15.48;26.91
79415;BME280;68864;44.972;19.612;2024-02-16T12:33:26;101344.88;;;15.41;26.54
79415;BME280;68864;44.972;19.612;2024-02-16T12:35:54;101334.50;;;15.49;28.96
79415;BME280;68864;44.972;19.612;2024-02-16T12:38:21;101336.72;;;15.59;27.03
79415;BME280;68864;44.972;19.612;2024-02-16T12:40:48;101328.75;;;15.38;26.34
79415;BME280;68864;44.972;19.612;2024-02-16T12:43:15;101328.53;;;15.24;25.93
79415;BME280;68864;44.972;19.612;2024-02-16T12:45:42;101323.97;;;15.16;26.51
79415;BME280;68864;44.972;19.612;2024-02-16T12:48:09;101315.63;;;15.20;26.63